Flight Track Log - Related Links

Times and Time Zones

All times are in EDT time to prevent confusion due to time zone crossing. See the UAL1206 flight status page for this flight to view local times or setup timezone preferences in your user account.

Time Position Orientation Groundspeed Altitude Reporting Facility
EDT Latitude Longitude Course Direction KTS MPH feet Rate Location/Type
Fri 12:46:03 PM 42.0000 -87.9500 169° South 174 200 2,200  Level Chicago TRACON
Fri 12:48:04 PM 41.9167 -88.0333 217° Southwest 281 323 5,000 1,097 Climbing Chicago TRACON
Fri 12:49:00 PM 41.5255 -87.6397 156° South  Level Estimated
Fri 12:49:09 PM 41.8453 -87.9986 160° South 279 321 5,600  Level Chicago Center
Fri 12:50:00 PM 41.4114 -87.5736 180° South  Level Estimated
Fri 12:50:11 PM 41.7811 -87.9342 143° Southeast 288 331 8,700  Level Chicago Center
Fri 12:51:00 PM 41.3032 -87.5111 169° South  Level Estimated
Fri 12:51:13 PM 41.7147 -87.8667 143° Southeast 297 342 12,100  Level Chicago Center
Fri 12:52:15 PM 41.6458 -87.7956 142° Southeast 313 360 14,100 2,177 Climbing Chicago Center
Fri 12:53:17 PM 41.5464 -87.6933 142° Southeast 375 432 16,600 2,419 Climbing Chicago Center
Fri 12:54:19 PM 41.4592 -87.6061 143° Southeast 387 445 19,100 2,256 Climbing Chicago Center
Fri 12:55:22 PM 41.3564 -87.5603 161° South 397 457 21,300 2,112 Climbing Chicago Center
Fri 12:56:24 PM 41.2472 -87.5417 173° South 395 455 23,500 1,839 Climbing Chicago Center
Fri 12:57:26 PM 41.1372 -87.5161 170° South 399 459 25,100 1,790 Climbing Chicago Center
Fri 12:58:28 PM 41.0222 -87.4853 169° South 418 481 27,200 2,468 Climbing Chicago Center
Fri 12:59:30 PM 40.8936 -87.4514 169° South 392 451 30,200 1,839 Climbing Chicago Center
Fri 01:00:32 PM 40.7864 -87.4228 169° South 393 452 31,000 387 Climbing Chicago Center
Fri 01:01:34 PM 40.6778 -87.3942 169° South 398 458 31,000  Level Chicago Center
Fri 01:02:36 PM 40.5703 -87.3664 169° South 396 456 31,000  Level Chicago Center
Fri 01:03:38 PM 40.4619 -87.3358 168° South 399 459 31,000  Level Chicago Center
Fri 01:04:40 PM 40.3586 -87.2461 147° Southeast 416 479 31,000  Level Chicago Center
Fri 01:05:42 PM 40.2642 -87.1608 145° Southeast 415 478 31,000  Level Chicago Center
Fri 01:06:44 PM 40.1747 -87.0683 142° Southeast 413 475 31,000  Level Chicago Center
Fri 01:07:34 PM 40.1197 -86.9639 125° Southeast 425 489 31,000  Level Indianapolis Center
Fri 01:08:36 PM 40.0367 -86.8114 125° Southeast 429 494 31,000  Level Indianapolis Center
Fri 01:09:38 PM 39.9689 -86.6856 125° Southeast 427 491 31,000  Level Indianapolis Center
Fri 01:10:40 PM 39.9014 -86.5578 125° Southeast 429 494 31,000  Level Indianapolis Center
Fri 01:11:42 PM 39.8331 -86.4308 125° Southeast 429 494 31,000  Level Indianapolis Center
Fri 01:12:44 PM 39.7597 -86.2961 125° Southeast 433 498 31,000  Level Indianapolis Center
Fri 01:13:46 PM 39.6878 -86.1628 125° Southeast 434 499 31,000  Level Indianapolis Center
Fri 01:14:48 PM 39.6186 -86.0364 125° Southeast 432 497 31,000  Level Indianapolis Center
Fri 01:15:50 PM 39.5508 -85.9139 126° Southeast 423 487 31,000  Level Indianapolis Center
Fri 01:16:52 PM 39.4711 -85.7664 125° Southeast 418 481 31,000  Level Indianapolis Center
Fri 01:17:54 PM 39.4019 -85.6428 126° Southeast 424 488 31,000  Level Indianapolis Center
Fri 01:18:56 PM 39.3333 -85.5178 125° Southeast 426 490 31,000  Level Indianapolis Center
Fri 01:19:58 PM 39.2642 -85.3942 126° Southeast 428 493 31,000  Level Indianapolis Center
Fri 01:21:00 PM 39.1942 -85.2700 126° Southeast 429 494 31,000  Level Indianapolis Center
Fri 01:22:02 PM 39.1242 -85.1442 126° Southeast 431 496 31,000  Level Indianapolis Center
Fri 01:23:04 PM 39.0392 -84.9944 126° Southeast 433 498 31,000  Level Indianapolis Center
Fri 01:24:06 PM 38.9683 -84.8692 126° Southeast 438 504 31,000  Level Indianapolis Center
Fri 01:25:08 PM 38.8969 -84.7411 126° Southeast 438 504 31,000  Level Indianapolis Center
Fri 01:26:10 PM 38.8244 -84.6139 126° Southeast 442 509 31,000  Level Indianapolis Center
Fri 01:27:12 PM 38.7492 -84.4847 127° Southeast 444 511 31,000  Level Indianapolis Center
Fri 01:28:14 PM 38.6617 -84.3344 127° Southeast 449 517 31,000  Level Indianapolis Center
Fri 01:29:16 PM 38.5661 -84.2722 153° Southeast 427 491 31,000  Level Indianapolis Center
Fri 01:30:18 PM 38.4367 -84.2128 160° South 422 486 31,000  Level Indianapolis Center
Fri 01:31:20 PM 38.3264 -84.1625 160° South 419 482 31,000  Level Indianapolis Center
Fri 01:32:22 PM 38.2169 -84.1156 161° South 414 476 31,000  Level Indianapolis Center
Fri 01:33:23 PM 38.1081 -84.0650 160° South 414 476 31,000  Level Indianapolis Center
Fri 01:34:25 PM 37.9972 -84.0178 161° South 419 482 31,000  Level Indianapolis Center
Fri 01:35:27 PM 37.8881 -83.9681 160° South 418 481 31,000  Level Indianapolis Center
Fri 01:36:29 PM 37.7600 -83.9108 161° South 419 482 31,000  Level Indianapolis Center
Fri 01:37:31 PM 37.6506 -83.8608 160° South 420 483 31,000  Level Indianapolis Center
Fri 01:38:33 PM 37.5414 -83.8111 160° South 417 480 31,000  Level Indianapolis Center
Fri 01:39:35 PM 37.4300 -83.7800 167° South 414 476 31,000  Level Indianapolis Center
Fri 01:40:37 PM 37.3161 -83.7539 170° South 415 478 31,000  Level Indianapolis Center
Fri 01:41:39 PM 37.2019 -83.7281 170° South 417 480 31,000  Level Indianapolis Center
Fri 01:42:40 PM 37.0686 -83.6975 170° South 418 481 31,000  Level Indianapolis Center
Fri 01:43:42 PM 36.9547 -83.6706 169° South 417 480 31,000  Level Indianapolis Center
Fri 01:44:44 PM 36.8408 -83.6444 170° South 417 480 31,000  Level Indianapolis Center
Fri 01:45:46 PM 36.7275 -83.6178 169° South 416 479 31,000  Level Indianapolis Center
Fri 01:46:48 PM 36.6133 -83.5933 170° South 416 479 31,000  Level Indianapolis Center
Fri 01:47:50 PM 36.4836 -83.5633 169° South 416 479 31,000  Level Indianapolis Center
Fri 01:48:52 PM 36.3700 -83.5372 170° South 415 478 31,000  Level Indianapolis Center
Fri 01:49:34 PM 36.2825 -83.5211 172° South 420 483 31,000  Level Atlanta Center
Fri 01:50:34 PM 36.1781 -83.4986 170° South 420 483 31,000  Level Atlanta Center
Fri 01:51:34 PM 36.0633 -83.4711 169° South 420 483 31,000  Level Atlanta Center
Fri 01:52:34 PM 35.9547 -83.4461 169° South 414 476 31,000  Level Atlanta Center
Fri 01:53:34 PM 35.8419 -83.4214 170° South 409 471 31,000  Level Atlanta Center
Fri 01:54:34 PM 35.7292 -83.3967 170° South 409 471 31,000  Level Atlanta Center
Fri 01:55:34 PM 35.6142 -83.3694 169° South 409 471 31,000  Level Atlanta Center
Fri 01:56:34 PM 35.5014 -83.3450 170° South 414 476 31,000  Level Atlanta Center
Fri 01:57:34 PM 35.3886 -83.3178 169° South 414 476 31,000  Level Atlanta Center
Fri 01:58:34 PM 35.2736 -83.2958 171° South 414 476 31,000  Level Atlanta Center
Fri 01:59:34 PM 35.1567 -83.2717 170° South 414 476 31,000  Level Atlanta Center
Fri 02:00:34 PM 35.0419 -83.2497 171° South 414 476 31,000  Level Atlanta Center
Fri 02:01:34 PM 34.9164 -83.2131 167° South 420 483 31,000  Level Atlanta Center
Fri 02:02:34 PM 34.7994 -83.1889 170° South 427 491 31,000  Level Atlanta Center
Fri 02:03:34 PM 34.6822 -83.1622 169° South 428 493 31,000  Level Atlanta Center
Fri 02:04:34 PM 34.5717 -83.1408 171° South 428 493 31,000  Level Atlanta Center
Fri 02:05:34 PM 34.4544 -83.1167 170° South 428 493 31,000  Level Atlanta Center
Fri 02:06:34 PM 34.3417 -83.0903 169° South 428 493 31,000  Level Atlanta Center
Fri 02:07:34 PM 34.2244 -83.0664 170° South 418 481 31,000  Level Atlanta Center
Fri 02:08:34 PM 34.1075 -83.0403 170° South 418 481 31,000  Level Atlanta Center
Fri 02:09:34 PM 34.0072 -83.0214 171° South 418 481 31,000  Level Atlanta Center
Fri 02:10:34 PM 33.8919 -82.9953 169° South 418 481 31,000  Level Atlanta Center
Fri 02:11:34 PM 33.7750 -82.9717 170° South 423 487 31,000  Level Atlanta Center
Fri 02:12:34 PM 33.6642 -82.9456 169° South 423 487 31,000  Level Atlanta Center
Fri 02:13:34 PM 33.5492 -82.9222 170° South 423 487 31,000  Level Atlanta Center
Fri 02:14:34 PM 33.4300 -82.8989 171° South 429 494 31,000 -400 Level Atlanta Center
Fri 02:15:34 PM 33.3150 -82.8756 170° South 424 488 30,200 -500 Descending Atlanta Center
Fri 02:16:34 PM 33.2019 -82.8497 169° South 424 488 30,000 -100 Descending Atlanta Center
Fri 02:17:34 PM 33.0869 -82.8264 170° South 424 488 30,000  Level Atlanta Center
Fri 02:18:34 PM 32.9719 -82.8058 171° South 424 488 30,000  Level Atlanta Center
Fri 02:19:34 PM 32.8569 -82.7803 169° South 424 488 30,000  Level Atlanta Center
Fri 02:23:15 PM 32.4231 -82.6908 170° South 409 471 30,000  Level Jacksonville Center
Fri 02:24:15 PM 32.3208 -82.6689 170° South 414 476 30,000  Level Jacksonville Center
Fri 02:25:15 PM 32.2081 -82.6444 170° South 420 483 30,000  Level Jacksonville Center
Fri 02:26:15 PM 32.0931 -82.6203 170° South 420 483 30,000  Level Jacksonville Center
Fri 02:27:15 PM 31.9783 -82.5961 170° South 420 483 30,000  Level Jacksonville Center
Fri 02:28:15 PM 31.8656 -82.5747 171° South 420 483 30,000  Level Jacksonville Center
Fri 02:29:15 PM 31.7486 -82.5531 171° South 425 489 30,000  Level Jacksonville Center
Fri 02:30:15 PM 31.6378 -82.5267 169° South 425 489 30,000  Level Jacksonville Center
Fri 02:31:15 PM 31.5228 -82.5050 171° South 425 489 30,000  Level Jacksonville Center
Fri 02:32:15 PM 31.4081 -82.4811 170° South 425 489 30,000  Level Jacksonville Center
Fri 02:33:15 PM 31.2783 -82.4622 173° South 425 489 30,000 -50 Level Jacksonville Center
Fri 02:34:15 PM 31.1656 -82.4361 169° South 425 489 29,900  Descending Jacksonville Center
Fri 02:35:15 PM 31.0486 -82.4125 170° South 425 489 30,000 50 Climbing Jacksonville Center
Fri 02:36:15 PM 30.9358 -82.3889 170° South 425 489 30,000  Level Jacksonville Center
Fri 02:37:15 PM 30.8208 -82.3653 170° South 425 489 30,000 -50 Level Jacksonville Center
Fri 02:38:15 PM 30.7058 -82.3417 170° South 425 489 29,900 -50 Descending Jacksonville Center
Fri 02:39:15 PM 30.5908 -82.3183 170° South 425 489 29,900  Level Jacksonville Center
Fri 02:40:15 PM 30.4864 -82.2925 168° South 425 489 29,900  Level Jacksonville Center
Fri 02:41:15 PM 30.3714 -82.2689 170° South 425 489 29,900 -500 Level Jacksonville Center
Fri 02:42:15 PM 30.2544 -82.2458 170° South 431 496 28,900 -1,000 Descending Jacksonville Center
Fri 02:43:15 PM 30.1394 -82.2225 170° South 426 490 27,900 -1,000 Descending Jacksonville Center
Fri 02:44:15 PM 30.0286 -82.2017 171° South 426 490 26,900 -1,000 Descending Jacksonville Center
Fri 02:45:15 PM 29.9139 -82.1786 170° South 426 490 25,900 -1,000 Descending Jacksonville Center
Fri 02:46:15 PM 29.8028 -82.1386 163° South 421 484 24,900 -1,000 Descending Jacksonville Center
Fri 02:47:15 PM 29.6942 -82.0917 159° South 414 476 23,900 -1,000 Descending Jacksonville Center
Fri 02:48:15 PM 29.5872 -82.0494 161° South 414 476 22,900 -1,450 Descending Jacksonville Center
Fri 02:49:15 PM 29.4869 -82.0147 163° South 400 460 21,000 -1,900 Descending Jacksonville Center
Fri 02:50:15 PM 29.3864 -81.9750 161° South 392 451 19,100 -1,800 Descending Jacksonville Center
Fri 02:51:15 PM 29.2881 -81.9403 163° South 379 436 17,400 -1,850 Descending Jacksonville Center
Fri 02:52:15 PM 29.1939 -81.8983 159° South 374 430 15,400 -1,950 Descending Jacksonville Center
Fri 02:53:15 PM 29.0933 -81.8589 161° South 362 417 13,500 -1,700 Descending Jacksonville Center
Fri 02:54:15 PM 29.0094 -81.8053 151° Southeast 357 411 12,000 -900 Descending Jacksonville Center
Fri 02:55:15 PM 28.9378 -81.7467 144° Southeast 335 386 11,700 -700 Descending Jacksonville Center
Fri 02:56:15 PM 28.8850 -81.6761 130° Southeast 313 360 10,600 -1,231 Descending Jacksonville Center
Fri 02:57:12 PM 28.8333 -81.6000 128° Southeast 290 334 9,300 -872 Descending Orlando TRACON
Fri 02:58:12 PM 28.8000 -81.5333 120° Southeast 247 284 8,900 -700 Descending Orlando TRACON
Fri 02:59:12 PM 28.7500 -81.4833 139° Southeast 245 282 7,900 -992 Descending Orlando TRACON
Fri 03:00:19 PM 28.7000 -81.4167 131° Southeast 237 273 6,800 -1,148 Descending Orlando TRACON
Fri 03:01:07 PM 28.6667 -81.3667 127° Southeast 223 257 5,700 -1,375 Descending Orlando TRACON

Login

Don't have an account? Register now (free) for customized features, flight alerts, and more!